createdAt,value
2018-07-19T00:03:08.828Z,20.84
2018-07-19T00:06:14.837Z,20.86
2018-07-19T00:09:39.020Z,20.79
2018-07-19T00:12:42.854Z,20.62
2018-07-19T00:19:04.252Z,20.41
2018-07-19T00:27:11.547Z,20.52
2018-07-19T00:56:37.143Z,20.26
2018-07-19T01:00:06.730Z,20.31
2018-07-19T01:10:33.139Z,20.17
2018-07-19T01:14:16.276Z,19.94
2018-07-19T01:20:58.113Z,19.91
2018-07-19T01:24:29.473Z,19.80
2018-07-19T01:27:54.545Z,19.94
2018-07-19T01:38:29.738Z,20.01
2018-07-19T01:49:49.415Z,19.63
2018-07-19T01:53:51.833Z,19.78
2018-07-19T02:00:34.644Z,19.47
2018-07-19T02:03:39.222Z,19.51
2018-07-19T02:06:50.026Z,19.50
2018-07-19T02:09:53.725Z,19.51
2018-07-19T02:12:57.432Z,19.46
2018-07-19T02:16:03.265Z,19.26
2018-07-19T02:19:11.525Z,19.37
2018-07-19T02:22:17.917Z,19.26
2018-07-19T02:25:33.582Z,19.22
2018-07-19T02:28:41.989Z,19.10
2018-07-19T02:31:49.018Z,19.21
2018-07-19T02:35:05.326Z,19.19
2018-07-19T02:38:11.709Z,19.13
2018-07-19T02:41:20.959Z,19.06
2018-07-19T02:44:30.594Z,18.99
2018-07-19T02:50:53.625Z,18.89
2018-07-19T02:53:59.082Z,18.87
2018-07-19T02:57:12.461Z,18.86
2018-07-19T03:00:26.827Z,18.92
2018-07-19T03:03:43.381Z,18.93
2018-07-19T03:06:57.477Z,19.11
2018-07-19T03:13:33.188Z,18.80
2018-07-19T03:16:39.801Z,18.77
2018-07-19T03:19:56.823Z,18.67
2018-07-19T03:23:18.649Z,18.69
2018-07-19T03:26:30.932Z,18.79
2018-07-19T03:29:53.768Z,18.62
2018-07-19T03:38:21.622Z,18.55
2018-07-19T03:41:26.166Z,18.69
2018-07-19T03:51:52.391Z,18.44
2018-07-19T04:01:52.166Z,18.15
2018-07-19T04:15:42.639Z,18.30
2018-07-19T04:19:06.455Z,18.51
2018-07-19T04:22:14.401Z,18.28
2018-07-19T04:25:22.691Z,18.43
2018-07-19T04:28:32.502Z,18.52
2018-07-19T04:31:37.848Z,18.60
2018-07-19T04:34:45.746Z,18.32
2018-07-19T04:37:55.568Z,18.34
2018-07-19T04:41:00.568Z,18.27
2018-07-19T04:44:11.952Z,18.37
2018-07-19T04:47:18.981Z,18.35
2018-07-19T04:50:29.876Z,18.41
2018-07-19T04:53:34.341Z,18.31
2018-07-19T04:56:49.204Z,18.28
2018-07-19T05:00:03.368Z,18.45
2018-07-19T05:03:17.710Z,18.57
2018-07-19T05:06:29.725Z,18.60
2018-07-19T05:09:58.868Z,18.65
2018-07-19T05:13:19.935Z,18.70
2018-07-19T05:16:31.722Z,18.73
2018-07-19T05:19:41.305Z,18.81
2018-07-19T05:22:51.231Z,18.76
2018-07-19T05:25:57.857Z,18.82
2018-07-19T05:29:11.546Z,18.83
2018-07-19T05:32:36.289Z,18.73
2018-07-19T05:35:55.419Z,18.92
2018-07-19T05:42:36.915Z,18.96
2018-07-19T05:45:52.381Z,19.01
2018-07-19T05:48:58.375Z,18.99
2018-07-19T05:52:03.971Z,19.13
2018-07-19T05:55:16.076Z,19.12
2018-07-19T05:58:31.716Z,19.23
2018-07-19T06:05:03.575Z,19.47
2018-07-19T06:08:11.019Z,19.39
2018-07-19T06:11:16.177Z,19.44
2018-07-19T06:15:34.512Z,19.47
2018-07-19T06:18:41.405Z,19.59
2018-07-19T06:21:50.945Z,19.57
2018-07-19T06:28:12.756Z,19.71
2018-07-19T06:31:22.557Z,19.79
2018-07-19T06:34:34.811Z,19.77
2018-07-19T06:37:45.004Z,19.75
2018-07-19T06:40:53.255Z,19.89
2018-07-19T06:44:03.808Z,19.91
2018-07-19T06:47:17.244Z,20.03
2018-07-19T06:50:28.713Z,20.14
2018-07-19T06:53:35.796Z,20.10
2018-07-19T06:56:44.193Z,20.10
2018-07-19T06:59:53.968Z,20.40
2018-07-19T07:03:03.098Z,20.32
2018-07-19T07:06:17.543Z,20.14
2018-07-19T07:09:22.377Z,20.15
2018-07-19T07:12:33.004Z,20.30
2018-07-19T07:15:44.424Z,20.30
2018-07-19T07:18:57.358Z,20.32
2018-07-19T07:22:05.047Z,20.43
2018-07-19T07:25:09.761Z,20.48
2018-07-19T07:28:16.059Z,20.42
2018-07-19T07:31:21.140Z,20.42
2018-07-19T07:34:26.203Z,20.48
2018-07-19T07:37:30.089Z,20.42
2018-07-19T07:40:34.455Z,20.47
2018-07-19T07:43:40.706Z,20.62
2018-07-19T07:46:50.495Z,20.44
2018-07-19T07:49:56.125Z,20.39
2018-07-19T07:53:02.200Z,20.26
2018-07-19T07:56:08.338Z,20.30
2018-07-19T07:59:12.903Z,20.28
2018-07-19T08:02:22.569Z,20.38
2018-07-19T08:05:39.830Z,20.34
2018-07-19T08:08:46.104Z,20.24
2018-07-19T08:11:53.596Z,20.30
2018-07-19T08:15:01.345Z,20.33
2018-07-19T08:18:17.128Z,20.29
2018-07-19T08:21:36.120Z,20.29
2018-07-19T08:28:21.842Z,19.96
2018-07-19T08:31:37.511Z,19.95
2018-07-19T08:35:04.765Z,19.92
2018-07-19T08:41:48.351Z,20.11
2018-07-19T08:44:53.556Z,20.19
2018-07-19T08:48:02.929Z,20.22
2018-07-19T08:51:14.344Z,20.01
2018-07-19T08:54:23.902Z,19.89
2018-07-19T08:57:29.176Z,20.08
2018-07-19T09:00:37.137Z,20.21
2018-07-19T09:03:41.467Z,20.29
2018-07-19T09:06:47.049Z,20.33
2018-07-19T09:09:50.613Z,20.40
2018-07-19T09:12:57.739Z,20.42
2018-07-19T09:19:22.356Z,20.45
2018-07-19T09:22:27.527Z,20.53
2018-07-19T09:25:35.587Z,20.55
2018-07-19T09:28:43.180Z,20.48
2018-07-19T09:32:12.636Z,20.53
2018-07-19T09:35:17.477Z,20.67
2018-07-19T09:38:22.378Z,20.61
2018-07-19T09:41:31.954Z,20.68
2018-07-19T09:45:12.558Z,20.75
2018-07-19T09:48:16.270Z,20.80
2018-07-19T09:51:28.308Z,20.75
2018-07-19T09:54:47.353Z,21.00
2018-07-19T09:57:58.756Z,20.93
2018-07-19T10:01:11.658Z,21.01
2018-07-19T10:04:31.855Z,21.07
2018-07-19T10:07:53.004Z,21.21
2018-07-19T10:11:19.656Z,21.11
2018-07-19T10:14:26.444Z,21.16
2018-07-19T10:21:12.633Z,21.13
2018-07-19T10:24:23.313Z,21.28
2018-07-19T10:27:32.138Z,21.36
2018-07-19T10:30:37.449Z,21.26
2018-07-19T10:33:42.897Z,21.19
2018-07-19T10:36:48.553Z,21.37
2018-07-19T10:40:08.199Z,21.42
2018-07-19T10:43:11.807Z,21.52
2018-07-19T10:46:33.597Z,21.57
2018-07-19T10:49:39.592Z,21.62
2018-07-19T10:52:44.547Z,21.48
2018-07-19T10:55:57.067Z,21.41
2018-07-19T10:59:03.737Z,21.40
2018-07-19T11:02:11.751Z,21.37
2018-07-19T11:05:23.179Z,21.39
2018-07-19T11:11:50.282Z,21.54
2018-07-19T11:15:07.598Z,21.60
2018-07-19T11:18:40.295Z,21.64
2018-07-19T11:22:02.747Z,21.53
2018-07-19T11:25:20.652Z,21.55
2018-07-19T11:28:43.982Z,21.75
2018-07-19T11:31:59.453Z,21.64
2018-07-19T11:35:24.819Z,21.76
2018-07-19T11:38:57.552Z,21.63
2018-07-19T11:42:15.556Z,21.76
2018-07-19T11:45:37.227Z,21.55
2018-07-19T11:48:48.753Z,21.61
2018-07-19T11:52:11.374Z,21.49
2018-07-19T11:58:53.406Z,21.77
2018-07-19T12:02:05.831Z,21.93
2018-07-19T12:08:57.457Z,22.20
2018-07-19T12:15:35.008Z,22.24
2018-07-19T12:18:43.915Z,22.25
2018-07-19T12:25:31.859Z,22.51
2018-07-19T12:28:36.391Z,22.45
2018-07-19T12:31:50.184Z,22.46
2018-07-19T12:35:01.047Z,22.42
2018-07-19T12:38:06.403Z,22.64
2018-07-19T12:41:13.132Z,22.82
2018-07-19T12:44:19.497Z,22.90
2018-07-19T12:47:23.209Z,22.81
2018-07-19T12:50:34.153Z,22.95
2018-07-19T12:53:45.462Z,22.80
2018-07-19T12:56:52.665Z,22.80
2018-07-19T12:59:59.781Z,22.69
2018-07-19T13:03:08.508Z,22.43
2018-07-19T13:06:14.682Z,22.60
2018-07-19T13:09:28.205Z,22.69
2018-07-19T13:12:35.231Z,22.85
2018-07-19T13:15:44.809Z,22.86
2018-07-19T13:18:51.223Z,22.97
2018-07-19T13:22:05.019Z,22.94
2018-07-19T13:25:08.957Z,22.91
2018-07-19T13:28:15.647Z,22.97
2018-07-19T13:31:27.957Z,22.90
2018-07-19T13:34:31.410Z,22.91
2018-07-19T13:37:35.628Z,23.04
2018-07-19T13:40:39.868Z,22.94
2018-07-19T13:43:44.989Z,23.01
2018-07-19T13:46:53.760Z,23.20
2018-07-19T13:50:03.130Z,23.06
2018-07-19T13:53:30.824Z,23.25
2018-07-19T13:56:35.697Z,23.49
2018-07-19T13:59:42.897Z,23.81
2018-07-19T14:02:48.760Z,24.13
2018-07-19T14:06:00.406Z,24.44
2018-07-19T14:09:06.753Z,24.69
2018-07-19T14:12:10.203Z,24.86
2018-07-19T14:15:13.732Z,25.18
2018-07-19T14:18:17.340Z,25.03
2018-07-19T14:21:21.901Z,24.86
2018-07-19T14:24:25.543Z,25.13
2018-07-19T14:27:29.919Z,25.42
2018-07-19T14:30:36.229Z,25.66
2018-07-19T14:33:39.805Z,25.78
2018-07-19T14:36:45.829Z,25.89
2018-07-19T14:39:55.776Z,25.86
2018-07-19T14:43:00.026Z,25.25
2018-07-19T14:46:09.344Z,25.16
2018-07-19T14:49:12.988Z,24.90
2018-07-19T14:52:19.770Z,25.07
2018-07-19T14:55:24.840Z,24.94
2018-07-19T14:58:32.952Z,24.75
2018-07-19T15:01:51.793Z,24.88
2018-07-19T15:05:00.117Z,25.01
2018-07-19T15:08:06.235Z,25.02
2018-07-19T15:11:19.435Z,25.05
2018-07-19T15:14:25.572Z,25.10
2018-07-19T15:21:02.395Z,25.57
2018-07-19T15:28:15.515Z,25.85
2018-07-19T15:31:39.431Z,25.89
2018-07-19T15:35:08.439Z,25.66
2018-07-19T16:06:34.444Z,25.49
2018-07-19T16:09:38.713Z,25.44
2018-07-19T16:14:02.103Z,25.37
2018-07-19T16:17:07.116Z,25.31
2018-07-19T16:20:12.219Z,25.46
2018-07-19T16:23:18.009Z,25.34
2018-07-19T16:26:22.571Z,25.35
2018-07-19T16:29:29.394Z,25.60
2018-07-19T16:35:58.499Z,25.74
2018-07-19T16:39:04.708Z,25.88
2018-07-19T16:42:08.421Z,25.82
2018-07-19T16:45:12.062Z,25.68
2018-07-19T16:48:17.838Z,25.75
2018-07-19T16:51:39.036Z,25.61
2018-07-19T16:54:45.600Z,25.63
2018-07-19T16:57:49.623Z,25.73
2018-07-19T17:00:56.970Z,25.74
2018-07-19T17:04:03.843Z,25.65
2018-07-19T17:07:09.680Z,25.76
2018-07-19T17:10:14.284Z,25.74
2018-07-19T17:13:20.983Z,25.61
2018-07-19T17:16:25.084Z,25.68
2018-07-19T17:19:29.148Z,25.44
2018-07-19T17:22:34.692Z,25.24
2018-07-19T17:25:38.467Z,25.29
2018-07-19T17:28:42.549Z,25.12
2018-07-19T17:31:48.986Z,25.12
2018-07-19T17:34:54.516Z,25.28
2018-07-19T17:38:08.418Z,25.03
2018-07-19T17:44:31.686Z,25.06
2018-07-19T17:47:36.187Z,25.08
2018-07-19T17:50:43.124Z,24.92
2018-07-19T17:53:53.876Z,24.97
2018-07-19T17:56:58.414Z,24.82
2018-07-19T18:00:02.953Z,24.83
2018-07-19T18:03:07.275Z,24.89
2018-07-19T18:06:10.894Z,24.82
2018-07-19T18:09:16.168Z,24.63
2018-07-19T18:12:19.950Z,24.61
2018-07-19T18:15:23.825Z,24.66
2018-07-19T18:18:33.945Z,24.37
2018-07-19T18:21:38.833Z,24.21
2018-07-19T18:24:43.575Z,24.11
2018-07-19T18:27:48.335Z,24.13
2018-07-19T18:30:53.169Z,24.14
2018-07-19T18:33:59.069Z,24.07
2018-07-19T18:37:02.853Z,23.98
2018-07-19T18:40:06.479Z,23.88
2018-07-19T18:43:10.366Z,23.73
2018-07-19T18:46:14.131Z,23.57
2018-07-19T18:49:18.691Z,23.64
2018-07-19T18:52:22.296Z,23.70
2018-07-19T18:55:27.172Z,23.60
2018-07-19T18:58:31.039Z,23.47
2018-07-19T19:01:36.253Z,23.41
2018-07-19T19:04:41.046Z,23.34
2018-07-19T19:07:44.896Z,23.27
2018-07-19T19:10:48.521Z,23.17
2018-07-19T19:13:52.446Z,23.13
2018-07-19T19:16:56.698Z,23.04
2018-07-19T19:20:01.873Z,23.07
2018-07-19T19:23:05.603Z,22.82
2018-07-19T19:26:10.517Z,22.84
2018-07-19T19:29:14.295Z,22.66
2018-07-19T19:32:19.432Z,22.68
2018-07-19T19:35:25.217Z,22.52
2018-07-19T19:38:31.226Z,22.42
2018-07-19T19:41:36.549Z,22.33
2018-07-19T19:44:47.506Z,22.35
2018-07-19T19:47:55.240Z,22.25
2018-07-19T19:50:58.851Z,22.12
2018-07-19T19:54:03.136Z,21.91
2018-07-19T19:57:07.007Z,21.71
2018-07-19T20:00:24.450Z,21.82
2018-07-19T20:03:29.237Z,21.89
2018-07-19T20:06:33.878Z,21.81
2018-07-19T20:09:40.065Z,21.73
2018-07-19T20:12:44.037Z,21.46
2018-07-19T20:15:48.771Z,21.33
2018-07-19T20:18:54.189Z,21.25
2018-07-19T20:21:57.829Z,21.18
2018-07-19T20:25:01.417Z,21.20
2018-07-19T20:31:08.664Z,20.84
2018-07-19T20:34:13.366Z,20.76
2018-07-19T20:37:17.021Z,20.72
2018-07-19T20:40:20.726Z,20.62
2018-07-19T20:43:25.349Z,20.57
2018-07-19T20:46:29.128Z,20.47
2018-07-19T20:49:33.651Z,20.62
2018-07-19T20:52:37.337Z,20.77
2018-07-19T20:55:42.148Z,20.74
2018-07-19T20:58:52.050Z,20.59
2018-07-19T21:01:56.659Z,20.63
2018-07-19T21:05:00.265Z,20.70
2018-07-19T21:08:04.380Z,20.43
2018-07-19T21:11:08.159Z,20.21
2018-07-19T21:14:12.102Z,20.10
2018-07-19T21:17:15.905Z,20.09
2018-07-19T21:20:19.506Z,19.97
2018-07-19T21:23:23.120Z,19.89
2018-07-19T21:26:27.950Z,19.73
2018-07-19T21:29:32.571Z,19.69
2018-07-19T21:32:36.232Z,19.78
2018-07-19T21:35:39.884Z,19.64
2018-07-19T21:38:44.615Z,19.60
2018-07-19T21:41:49.151Z,19.57
2018-07-19T21:44:52.800Z,19.39
2018-07-19T21:47:56.454Z,19.49
2018-07-19T21:51:00.157Z,19.29
2018-07-19T21:54:04.017Z,19.23
2018-07-19T21:57:08.552Z,19.69
2018-07-19T22:00:13.457Z,19.63
2018-07-19T22:03:18.265Z,19.47
2018-07-19T22:06:22.997Z,19.71
2018-07-19T22:09:35.070Z,19.58
2018-07-19T22:12:54.790Z,19.58
2018-07-19T22:16:00.116Z,19.43
2018-07-19T22:19:04.043Z,19.62
2018-07-19T22:22:07.746Z,19.51
2018-07-19T22:25:11.470Z,19.38
2018-07-19T22:28:18.557Z,19.48
2018-07-19T22:31:25.205Z,19.42
2018-07-19T22:34:29.527Z,19.33
2018-07-19T22:37:34.357Z,19.33
2018-07-19T22:44:16.803Z,19.33
2018-07-19T22:47:22.215Z,19.20
2018-07-19T22:50:27.639Z,19.15
2018-07-19T22:53:35.918Z,19.20
2018-07-19T22:57:05.089Z,19.11
2018-07-19T23:00:08.823Z,18.55
2018-07-19T23:03:36.070Z,18.57
2018-07-19T23:06:44.563Z,18.81
2018-07-19T23:09:48.764Z,18.79
2018-07-19T23:16:07.429Z,18.77
2018-07-19T23:19:13.045Z,18.74
2018-07-19T23:22:16.623Z,18.81
2018-07-19T23:25:21.149Z,18.72
2018-07-19T23:28:25.901Z,18.59
2018-07-19T23:31:31.761Z,18.45
2018-07-19T23:34:35.664Z,18.62
2018-07-19T23:37:40.740Z,18.59
2018-07-19T23:40:46.615Z,18.68
2018-07-19T23:43:54.768Z,18.54
2018-07-19T23:47:02.369Z,18.67
2018-07-19T23:50:06.163Z,18.65
2018-07-19T23:53:09.769Z,18.46
2018-07-19T23:56:14.412Z,18.53
2018-07-19T23:59:17.946Z,18.44
